sensor_id;sensor_type;location;lat;lon;timestamp;pressure;altitude;pressure_sealevel;temperature;humidity
14612;BME280;7392;52.078;11.650;2022-09-27T00:00:45;98799.44;;;11.71;84.57
14612;BME280;7392;52.078;11.650;2022-09-27T00:03:13;98794.19;;;11.70;84.27
14612;BME280;7392;52.078;11.650;2022-09-27T00:05:41;98795.13;;;11.69;84.71
14612;BME280;7392;52.078;11.650;2022-09-27T00:08:09;98790.72;;;11.68;85.04
14612;BME280;7392;52.078;11.650;2022-09-27T00:10:37;98787.25;;;11.66;84.70
14612;BME280;7392;52.078;11.650;2022-09-27T00:13:06;98781.94;;;11.66;84.81
14612;BME280;7392;52.078;11.650;2022-09-27T00:15:34;98780.13;;;11.66;84.70
14612;BME280;7392;52.078;11.650;2022-09-27T00:18:02;98781.03;;;11.67;84.67
14612;BME280;7392;52.078;11.650;2022-09-27T00:20:30;98771.28;;;11.66;84.60
14612;BME280;7392;52.078;11.650;2022-09-27T00:22:57;98778.41;;;11.65;84.59
14612;BME280;7392;52.078;11.650;2022-09-27T00:25:25;98771.28;;;11.66;85.02
14612;BME280;7392;52.078;11.650;2022-09-27T00:27:53;98767.84;;;11.64;85.36
14612;BME280;7392;52.078;11.650;2022-09-27T00:30:22;98771.34;;;11.64;85.40
14612;BME280;7392;52.078;11.650;2022-09-27T00:32:51;98764.38;;;11.62;86.00
14612;BME280;7392;52.078;11.650;2022-09-27T00:35:19;98761.72;;;11.62;86.51
14612;BME280;7392;52.078;11.650;2022-09-27T00:37:47;98761.81;;;11.58;87.30
14612;BME280;7392;52.078;11.650;2022-09-27T00:40:15;98757.53;;;11.54;88.18
14612;BME280;7392;52.078;11.650;2022-09-27T00:42:45;98743.50;;;11.51;88.78
14612;BME280;7392;52.078;11.650;2022-09-27T00:45:15;98741.88;;;11.47;89.32
14612;BME280;7392;52.078;11.650;2022-09-27T00:47:50;98745.50;;;11.44;90.10
14612;BME280;7392;52.078;11.650;2022-09-27T00:50:25;98735.94;;;11.40;90.38
14612;BME280;7392;52.078;11.650;2022-09-27T00:53:03;98729.81;;;11.38;90.70
14612;BME280;7392;52.078;11.650;2022-09-27T00:55:37;98725.47;;;11.35;91.41
14612;BME280;7392;52.078;11.650;2022-09-27T00:58:06;98719.34;;;11.33;92.07
14612;BME280;7392;52.078;11.650;2022-09-27T01:00:35;98717.59;;;11.32;93.11
14612;BME280;7392;52.078;11.650;2022-09-27T01:03:08;98708.94;;;11.27;93.76
14612;BME280;7392;52.078;11.650;2022-09-27T01:05:40;98715.28;;;11.23;94.40
14612;BME280;7392;52.078;11.650;2022-09-27T01:08:08;98708.38;;;11.19;95.35
14612;BME280;7392;52.078;11.650;2022-09-27T01:10:40;98697.91;;;11.14;95.70
14612;BME280;7392;52.078;11.650;2022-09-27T01:13:17;98701.66;;;11.09;96.41
14612;BME280;7392;52.078;11.650;2022-09-27T01:15:51;98704.41;;;11.06;97.20
14612;BME280;7392;52.078;11.650;2022-09-27T01:18:29;98692.16;;;11.01;98.07
14612;BME280;7392;52.078;11.650;2022-09-27T01:21:26;98699.38;;;10.98;98.75
14612;BME280;7392;52.078;11.650;2022-09-27T01:24:11;98701.28;;;10.94;99.58
14612;BME280;7392;52.078;11.650;2022-09-27T01:27:11;98704.94;;;10.92;100.00
14612;BME280;7392;52.078;11.650;2022-09-27T01:32:36;98685.63;;;10.87;100.00
14612;BME280;7392;52.078;11.650;2022-09-27T01:35:14;98684.69;;;10.88;100.00
14612;BME280;7392;52.078;11.650;2022-09-27T01:37:50;98668.75;;;10.88;100.00
14612;BME280;7392;52.078;11.650;2022-09-27T01:40:24;98689.19;;;10.85;100.00
14612;BME280;7392;52.078;11.650;2022-09-27T01:43:31;98675.13;;;10.83;100.00
14612;BME280;7392;52.078;11.650;2022-09-27T01:46:03;98676.06;;;10.81;100.00
14612;BME280;7392;52.078;11.650;2022-09-27T01:48:56;98673.47;;;10.79;100.00
14612;BME280;7392;52.078;11.650;2022-09-27T01:51:28;98671.88;;;10.75;100.00
14612;BME280;7392;52.078;11.650;2022-09-27T01:54:00;98666.59;;;10.74;100.00
14612;BME280;7392;52.078;11.650;2022-09-27T01:56:50;98662.28;;;10.71;100.00
14612;BME280;7392;52.078;11.650;2022-09-27T01:59:27;98665.00;;;10.70;100.00
14612;BME280;7392;52.078;11.650;2022-09-27T02:02:23;98657.09;;;10.68;100.00
14612;BME280;7392;52.078;11.650;2022-09-27T02:05:18;98666.91;;;10.66;100.00
14612;BME280;7392;52.078;11.650;2022-09-27T02:07:57;98656.38;;;10.63;100.00
14612;BME280;7392;52.078;11.650;2022-09-27T02:10:31;98659.09;;;10.61;100.00
14612;BME280;7392;52.078;11.650;2022-09-27T02:13:16;98659.13;;;10.60;100.00
14612;BME280;7392;52.078;11.650;2022-09-27T02:15:55;98655.66;;;10.58;100.00
14612;BME280;7392;52.078;11.650;2022-09-27T02:18:43;98647.75;;;10.56;100.00
14612;BME280;7392;52.078;11.650;2022-09-27T02:21:19;98643.31;;;10.57;100.00
14612;BME280;7392;52.078;11.650;2022-09-27T02:23:51;98644.25;;;10.56;100.00
14612;BME280;7392;52.078;11.650;2022-09-27T02:26:26;98643.34;;;10.55;100.00
14612;BME280;7392;52.078;11.650;2022-09-27T02:28:59;98652.31;;;10.53;100.00
14612;BME280;7392;52.078;11.650;2022-09-27T02:31:40;98636.44;;;10.51;100.00
14612;BME280;7392;52.078;11.650;2022-09-27T02:34:11;98640.88;;;10.51;100.00
14612;BME280;7392;52.078;11.650;2022-09-27T02:36:42;98639.16;;;10.50;100.00
14612;BME280;7392;52.078;11.650;2022-09-27T02:39:10;98633.84;;;10.50;100.00
14612;BME280;7392;52.078;11.650;2022-09-27T02:41:38;98632.13;;;10.47;100.00
14612;BME280;7392;52.078;11.650;2022-09-27T02:44:09;98628.59;;;10.48;100.00
14612;BME280;7392;52.078;11.650;2022-09-27T02:46:52;98626.78;;;10.48;100.00
14612;BME280;7392;52.078;11.650;2022-09-27T02:49:35;98628.53;;;10.50;100.00
14612;BME280;7392;52.078;11.650;2022-09-27T02:52:36;98625.88;;;10.50;100.00
14612;BME280;7392;52.078;11.650;2022-09-27T02:55:11;98625.88;;;10.50;100.00
14612;BME280;7392;52.078;11.650;2022-09-27T02:58:03;98621.44;;;10.50;100.00
14612;BME280;7392;52.078;11.650;2022-09-27T03:00:56;98626.78;;;10.48;100.00
14612;BME280;7392;52.078;11.650;2022-09-27T03:03:46;98625.06;;;10.47;100.00
14612;BME280;7392;52.078;11.650;2022-09-27T03:06:17;98617.16;;;10.46;100.00
14612;BME280;7392;52.078;11.650;2022-09-27T03:08:48;98610.09;;;10.45;100.00
14612;BME280;7392;52.078;11.650;2022-09-27T03:11:16;98616.34;;;10.44;100.00
14612;BME280;7392;52.078;11.650;2022-09-27T03:13:44;98614.56;;;10.44;100.00
14612;BME280;7392;52.078;11.650;2022-09-27T03:16:34;98601.34;;;10.43;100.00
14612;BME280;7392;52.078;11.650;2022-09-27T03:19:14;98605.78;;;10.42;100.00
14612;BME280;7392;52.078;11.650;2022-09-27T03:21:50;98605.84;;;10.41;100.00
14612;BME280;7392;52.078;11.650;2022-09-27T03:24:20;98599.69;;;10.40;100.00
14612;BME280;7392;52.078;11.650;2022-09-27T03:26:48;98597.03;;;10.40;100.00
14612;BME280;7392;52.078;11.650;2022-09-27T03:29:16;98600.53;;;10.41;100.00
14612;BME280;7392;52.078;11.650;2022-09-27T03:31:50;98587.31;;;10.39;100.00
14612;BME280;7392;52.078;11.650;2022-09-27T03:34:32;98590.88;;;10.38;100.00
14612;BME280;7392;52.078;11.650;2022-09-27T03:37:00;98584.72;;;10.38;100.00
14612;BME280;7392;52.078;11.650;2022-09-27T03:39:29;98581.16;;;10.39;100.00
14612;BME280;7392;52.078;11.650;2022-09-27T03:41:57;98584.72;;;10.38;100.00
14612;BME280;7392;52.078;11.650;2022-09-27T03:44:24;98590.03;;;10.38;100.00
14612;BME280;7392;52.078;11.650;2022-09-27T03:46:52;98592.72;;;10.36;100.00
14612;BME280;7392;52.078;11.650;2022-09-27T03:49:20;98586.56;;;10.36;100.00
14612;BME280;7392;52.078;11.650;2022-09-27T03:51:48;98587.41;;;10.36;100.00
14612;BME280;7392;52.078;11.650;2022-09-27T03:54:16;98589.22;;;10.36;100.00
14612;BME280;7392;52.078;11.650;2022-09-27T03:56:45;98578.66;;;10.34;100.00
14612;BME280;7392;52.078;11.650;2022-09-27T03:59:13;98583.16;;;10.32;100.00
14612;BME280;7392;52.078;11.650;2022-09-27T04:02:08;98584.88;;;10.33;100.00
14612;BME280;7392;52.078;11.650;2022-09-27T04:04:59;98578.78;;;10.29;100.00
14612;BME280;7392;52.078;11.650;2022-09-27T04:07:27;98581.44;;;10.29;100.00
14612;BME280;7392;52.078;11.650;2022-09-27T04:09:56;98574.31;;;10.32;100.00
14612;BME280;7392;52.078;11.650;2022-09-27T04:12:25;98577.00;;;10.30;100.00
14612;BME280;7392;52.078;11.650;2022-09-27T04:14:53;98579.72;;;10.28;100.00
14612;BME280;7392;52.078;11.650;2022-09-27T04:17:40;98569.09;;;10.28;100.00
14612;BME280;7392;52.078;11.650;2022-09-27T04:20:35;98565.56;;;10.28;100.00
14612;BME280;7392;52.078;11.650;2022-09-27T04:23:09;98574.41;;;10.28;100.00
14612;BME280;7392;52.078;11.650;2022-09-27T04:25:41;98572.66;;;10.27;100.00
14612;BME280;7392;52.078;11.650;2022-09-27T04:28:36;98577.97;;;10.27;100.00
14612;BME280;7392;52.078;11.650;2022-09-27T04:31:04;98574.47;;;10.27;100.00
14612;BME280;7392;52.078;11.650;2022-09-27T04:33:48;98577.13;;;10.27;100.00
14612;BME280;7392;52.078;11.650;2022-09-27T04:36:30;98572.72;;;10.26;100.00
14612;BME280;7392;52.078;11.650;2022-09-27T04:39:04;98571.00;;;10.25;100.00
14612;BME280;7392;52.078;11.650;2022-09-27T04:41:35;98569.25;;;10.24;100.00
14612;BME280;7392;52.078;11.650;2022-09-27T04:44:04;98551.66;;;10.21;100.00
14612;BME280;7392;52.078;11.650;2022-09-27T04:46:32;98564.91;;;10.21;100.00
14612;BME280;7392;52.078;11.650;2022-09-27T04:49:01;98565.03;;;10.18;100.00
14612;BME280;7392;52.078;11.650;2022-09-27T04:51:31;98572.13;;;10.18;100.00
14612;BME280;7392;52.078;11.650;2022-09-27T04:53:59;98572.13;;;10.18;100.00
14612;BME280;7392;52.078;11.650;2022-09-27T04:56:40;98577.47;;;10.16;100.00
14612;BME280;7392;52.078;11.650;2022-09-27T04:59:09;98577.56;;;10.15;100.00
14612;BME280;7392;52.078;11.650;2022-09-27T05:01:39;98585.50;;;10.15;100.00
14612;BME280;7392;52.078;11.650;2022-09-27T05:04:14;98575.84;;;10.12;100.00
14612;BME280;7392;52.078;11.650;2022-09-27T05:06:46;98574.06;;;10.13;100.00
14612;BME280;7392;52.078;11.650;2022-09-27T05:09:31;98569.69;;;10.11;100.00
14612;BME280;7392;52.078;11.650;2022-09-27T05:11:59;98565.28;;;10.10;100.00
14612;BME280;7392;52.078;11.650;2022-09-27T05:14:47;98569.69;;;10.11;100.00
14612;BME280;7392;52.078;11.650;2022-09-27T05:17:33;98569.75;;;10.10;100.00
14612;BME280;7392;52.078;11.650;2022-09-27T05:20:20;98568.94;;;10.08;100.00
14612;BME280;7392;52.078;11.650;2022-09-27T05:23:14;98571.59;;;10.08;100.00
14612;BME280;7392;52.078;11.650;2022-09-27T05:25:42;98568.88;;;10.09;100.00
14612;BME280;7392;52.078;11.650;2022-09-27T05:28:10;98569.78;;;10.08;100.00
14612;BME280;7392;52.078;11.650;2022-09-27T05:30:39;98583.09;;;10.07;100.00
14612;BME280;7392;52.078;11.650;2022-09-27T05:33:13;98573.34;;;10.07;100.00
14612;BME280;7392;52.078;11.650;2022-09-27T05:35:53;98575.09;;;10.08;100.00
14612;BME280;7392;52.078;11.650;2022-09-27T05:38:24;98569.78;;;10.08;100.00
14612;BME280;7392;52.078;11.650;2022-09-27T05:40:55;98575.03;;;10.10;100.00
14612;BME280;7392;52.078;11.650;2022-09-27T05:43:24;98569.69;;;10.11;100.00
14612;BME280;7392;52.078;11.650;2022-09-27T05:45:53;98572.28;;;10.13;100.00
14612;BME280;7392;52.078;11.650;2022-09-27T05:48:22;98566.84;;;10.16;100.00
14612;BME280;7392;52.078;11.650;2022-09-27T05:50:58;98578.31;;;10.18;100.00
14612;BME280;7392;52.078;11.650;2022-09-27T05:53:26;98572.94;;;10.20;100.00
14612;BME280;7392;52.078;11.650;2022-09-27T05:55:54;98575.53;;;10.21;100.00
14612;BME280;7392;52.078;11.650;2022-09-27T05:58:31;98567.50;;;10.23;100.00
14612;BME280;7392;52.078;11.650;2022-09-27T06:01:12;98573.66;;;10.25;100.00
14612;BME280;7392;52.078;11.650;2022-09-27T06:04:00;98574.47;;;10.27;100.00
14612;BME280;7392;52.078;11.650;2022-09-27T06:06:51;98568.16;;;10.29;100.00
14612;BME280;7392;52.078;11.650;2022-09-27T06:09:19;98574.31;;;10.32;100.00
14612;BME280;7392;52.078;11.650;2022-09-27T06:11:47;98574.25;;;10.33;100.00
14612;BME280;7392;52.078;11.650;2022-09-27T06:14:17;98575.16;;;10.34;100.00
14612;BME280;7392;52.078;11.650;2022-09-27T06:16:55;98578.59;;;10.36;100.00
14612;BME280;7392;52.078;11.650;2022-09-27T06:19:26;98580.28;;;10.38;100.00
14612;BME280;7392;52.078;11.650;2022-09-27T06:21:55;98590.88;;;10.38;100.00
14612;BME280;7392;52.078;11.650;2022-09-27T06:24:26;98588.13;;;10.41;100.00
14612;BME280;7392;52.078;11.650;2022-09-27T06:26:58;98589.88;;;10.42;100.00
14612;BME280;7392;52.078;11.650;2022-09-27T06:29:35;98587.16;;;10.44;100.00
14612;BME280;7392;52.078;11.650;2022-09-27T06:32:10;98586.28;;;10.43;100.00
14612;BME280;7392;52.078;11.650;2022-09-27T06:34:47;98589.75;;;10.45;100.00
14612;BME280;7392;52.078;11.650;2022-09-27T06:37:16;98595.06;;;10.45;100.00
14612;BME280;7392;52.078;11.650;2022-09-27T06:39:44;98594.94;;;10.48;100.00
14612;BME280;7392;52.078;11.650;2022-09-27T06:42:34;98601.13;;;10.49;100.00
14612;BME280;7392;52.078;11.650;2022-09-27T06:45:09;98595.78;;;10.51;100.00
14612;BME280;7392;52.078;11.650;2022-09-27T06:47:57;98604.50;;;10.54;100.00
14612;BME280;7392;52.078;11.650;2022-09-27T06:50:44;98601.78;;;10.56;100.00
14612;BME280;7392;52.078;11.650;2022-09-27T06:53:14;98604.38;;;10.57;100.00
14612;BME280;7392;52.078;11.650;2022-09-27T06:55:42;98599.94;;;10.58;100.00
14612;BME280;7392;52.078;11.650;2022-09-27T06:58:11;98603.41;;;10.60;100.00
14612;BME280;7392;52.078;11.650;2022-09-27T07:01:15;98608.59;;;10.63;100.00
14612;BME280;7392;52.078;11.650;2022-09-27T07:04:17;98603.22;;;10.64;100.00
14612;BME280;7392;52.078;11.650;2022-09-27T07:07:04;98606.69;;;10.66;100.00
14612;BME280;7392;52.078;11.650;2022-09-27T07:09:35;98612.81;;;10.69;100.00
14612;BME280;7392;52.078;11.650;2022-09-27T07:12:05;98612.72;;;10.72;100.00
14612;BME280;7392;52.078;11.650;2022-09-27T07:14:32;98611.66;;;10.76;100.00
14612;BME280;7392;52.078;11.650;2022-09-27T07:17:03;98607.03;;;10.81;100.00
14612;BME280;7392;52.078;11.650;2022-09-27T07:19:39;98612.13;;;10.87;100.00
14612;BME280;7392;52.078;11.650;2022-09-27T07:22:07;98622.47;;;10.95;100.00
14612;BME280;7392;52.078;11.650;2022-09-27T07:24:36;98616.94;;;11.01;100.00
14612;BME280;7392;52.078;11.650;2022-09-27T07:27:05;98617.50;;;11.09;100.00
14612;BME280;7392;52.078;11.650;2022-09-27T07:29:32;98614.59;;;11.15;100.00
14612;BME280;7392;52.078;11.650;2022-09-27T07:32:01;98623.16;;;11.23;100.00
14612;BME280;7392;52.078;11.650;2022-09-27T07:34:29;98615.69;;;11.33;100.00
14612;BME280;7392;52.078;11.650;2022-09-27T07:36:59;98609.09;;;11.44;100.00
14612;BME280;7392;52.078;11.650;2022-09-27T07:39:34;98617.59;;;11.53;100.00
14612;BME280;7392;52.078;11.650;2022-09-27T07:42:02;98619.69;;;11.67;100.00
14612;BME280;7392;52.078;11.650;2022-09-27T07:44:33;98619.19;;;11.79;100.00
14612;BME280;7392;52.078;11.650;2022-09-27T07:47:27;98624.84;;;11.94;100.00
14612;BME280;7392;52.078;11.650;2022-09-27T07:50:04;98618.06;;;12.07;100.00
14612;BME280;7392;52.078;11.650;2022-09-27T07:52:42;98626.78;;;12.11;100.00
14612;BME280;7392;52.078;11.650;2022-09-27T07:55:23;98633.00;;;12.11;100.00
14612;BME280;7392;52.078;11.650;2022-09-27T07:58:03;98657.13;;;12.07;100.00
14612;BME280;7392;52.078;11.650;2022-09-27T08:00:32;98670.06;;;11.94;100.00
14612;BME280;7392;52.078;11.650;2022-09-27T08:03:03;98658.09;;;11.82;100.00
14612;BME280;7392;52.078;11.650;2022-09-27T08:05:33;98659.50;;;11.69;100.00
14612;BME280;7392;52.078;11.650;2022-09-27T08:08:03;98665.22;;;11.58;100.00
14612;BME280;7392;52.078;11.650;2022-09-27T08:10:32;98664.63;;;11.51;100.00
14612;BME280;7392;52.078;11.650;2022-09-27T08:13:01;98667.47;;;11.47;100.00
14612;BME280;7392;52.078;11.650;2022-09-27T08:15:29;98668.56;;;11.41;100.00
14612;BME280;7392;52.078;11.650;2022-09-27T08:17:57;98673.13;;;11.37;100.00
14612;BME280;7392;52.078;11.650;2022-09-27T08:20:48;98678.56;;;11.34;100.00
14612;BME280;7392;52.078;11.650;2022-09-27T08:23:35;98686.59;;;11.33;100.00
14612;BME280;7392;52.078;11.650;2022-09-27T08:26:16;98689.25;;;11.33;100.00
14612;BME280;7392;52.078;11.650;2022-09-27T08:29:13;98690.16;;;11.32;100.00
14612;BME280;7392;52.078;11.650;2022-09-27T08:31:49;98690.09;;;11.33;100.00
14612;BME280;7392;52.078;11.650;2022-09-27T08:34:17;98692.75;;;11.33;100.00
14612;BME280;7392;52.078;11.650;2022-09-27T08:36:45;98691.91;;;11.33;100.00
14612;BME280;7392;52.078;11.650;2022-09-27T08:39:14;98706.16;;;11.30;100.00
14612;BME280;7392;52.078;11.650;2022-09-27T08:41:54;98704.41;;;11.31;100.00
14612;BME280;7392;52.078;11.650;2022-09-27T08:44:28;98701.91;;;11.26;100.00
14612;BME280;7392;52.078;11.650;2022-09-27T08:47:14;98711.78;;;11.22;100.00
14612;BME280;7392;52.078;11.650;2022-09-27T08:49:47;98717.94;;;11.23;100.00
14612;BME280;7392;52.078;11.650;2022-09-27T08:52:19;98721.47;;;11.23;100.00
14612;BME280;7392;52.078;11.650;2022-09-27T08:54:50;98717.91;;;11.25;100.00
14612;BME280;7392;52.078;11.650;2022-09-27T08:57:20;98727.41;;;11.30;100.00
14612;BME280;7392;52.078;11.650;2022-09-27T08:59:54;98725.41;;;11.37;100.00
14612;BME280;7392;52.078;11.650;2022-09-27T09:02:27;98730.50;;;11.43;100.00
14612;BME280;7392;52.078;11.650;2022-09-27T09:04:59;98731.19;;;11.48;100.00
14612;BME280;7392;52.078;11.650;2022-09-27T09:07:50;98738.06;;;11.54;100.00
14612;BME280;7392;52.078;11.650;2022-09-27T09:10:36;98732.75;;;11.54;100.00
14612;BME280;7392;52.078;11.650;2022-09-27T09:13:34;98730.84;;;11.57;100.00
14612;BME280;7392;52.078;11.650;2022-09-27T09:16:12;98743.03;;;11.63;100.00
14612;BME280;7392;52.078;11.650;2022-09-27T09:18:58;98737.31;;;11.74;100.00
14612;BME280;7392;52.078;11.650;2022-09-27T09:22:00;98740.66;;;11.79;100.00
14612;BME280;7392;52.078;11.650;2022-09-27T09:24:41;98751.88;;;11.87;100.00
14612;BME280;7392;52.078;11.650;2022-09-27T09:27:16;98743.16;;;11.84;100.00
14612;BME280;7392;52.078;11.650;2022-09-27T09:30:00;98745.03;;;11.80;100.00
14612;BME280;7392;52.078;11.650;2022-09-27T09:32:44;98757.59;;;11.76;100.00
14612;BME280;7392;52.078;11.650;2022-09-27T09:35:20;98751.69;;;11.68;100.00
14612;BME280;7392;52.078;11.650;2022-09-27T09:37:50;98757.09;;;11.67;100.00
14612;BME280;7392;52.078;11.650;2022-09-27T09:40:22;98752.84;;;11.61;100.00
14612;BME280;7392;52.078;11.650;2022-09-27T09:42:56;98758.16;;;11.61;100.00
14612;BME280;7392;52.078;11.650;2022-09-27T09:45:28;98749.28;;;11.62;100.00
14612;BME280;7392;52.078;11.650;2022-09-27T09:48:04;98756.50;;;11.58;100.00
14612;BME280;7392;52.078;11.650;2022-09-27T09:50:35;98762.91;;;11.53;100.00
14612;BME280;7392;52.078;11.650;2022-09-27T09:53:14;98765.75;;;11.48;100.00
14612;BME280;7392;52.078;11.650;2022-09-27T09:55:47;98758.75;;;11.46;100.00
14612;BME280;7392;52.078;11.650;2022-09-27T09:58:23;98768.56;;;11.44;100.00
14612;BME280;7392;52.078;11.650;2022-09-27T10:01:00;98771.34;;;11.40;100.00
14612;BME280;7392;52.078;11.650;2022-09-27T10:03:35;98759.09;;;11.36;100.00
14612;BME280;7392;52.078;11.650;2022-09-27T10:06:04;98758.16;;;11.37;100.00
14612;BME280;7392;52.078;11.650;2022-09-27T10:08:32;98767.81;;;11.40;100.00
14612;BME280;7392;52.078;11.650;2022-09-27T10:11:22;98766.91;;;11.41;100.00
14612;BME280;7392;52.078;11.650;2022-09-27T10:14:17;98760.66;;;11.42;100.00
14612;BME280;7392;52.078;11.650;2022-09-27T10:16:48;98768.56;;;11.44;100.00
14612;BME280;7392;52.078;11.650;2022-09-27T10:19:22;98771.38;;;11.39;100.00
14612;BME280;7392;52.078;11.650;2022-09-27T10:21:53;98767.13;;;11.35;100.00
14612;BME280;7392;52.078;11.650;2022-09-27T10:24:21;98775.31;;;11.29;100.00
14612;BME280;7392;52.078;11.650;2022-09-27T10:26:58;98779.97;;;11.22;100.00
14612;BME280;7392;52.078;11.650;2022-09-27T10:29:32;98783.72;;;11.16;100.00
14612;BME280;7392;52.078;11.650;2022-09-27T10:32:21;98779.50;;;11.11;100.00
14612;BME280;7392;52.078;11.650;2022-09-27T10:35:20;98788.31;;;11.11;100.00
14612;BME280;7392;52.078;11.650;2022-09-27T10:37:50;98784.75;;;11.12;100.00
14612;BME280;7392;52.078;11.650;2022-09-27T10:40:26;98793.53;;;11.14;100.00
14612;BME280;7392;52.078;11.650;2022-09-27T10:42:56;98791.69;;;11.16;100.00
14612;BME280;7392;52.078;11.650;2022-09-27T10:45:38;98788.06;;;11.19;100.00
14612;BME280;7392;52.078;11.650;2022-09-27T10:48:18;98800.41;;;11.20;100.00
14612;BME280;7392;52.078;11.650;2022-09-27T10:50:56;98787.13;;;11.20;100.00
14612;BME280;7392;52.078;11.650;2022-09-27T10:53:44;98796.00;;;11.20;100.00
14612;BME280;7392;52.078;11.650;2022-09-27T10:56:22;98798.50;;;11.23;100.00
14612;BME280;7392;52.078;11.650;2022-09-27T10:58:51;98794.59;;;11.34;100.00
14612;BME280;7392;52.078;11.650;2022-09-27T11:01:21;98806.63;;;11.44;100.00
14612;BME280;7392;52.078;11.650;2022-09-27T11:04:01;98796.09;;;11.66;100.00
14612;BME280;7392;52.078;11.650;2022-09-27T11:06:31;98801.72;;;11.82;100.00
14612;BME280;7392;52.078;11.650;2022-09-27T11:09:20;98792.28;;;11.97;100.00
14612;BME280;7392;52.078;11.650;2022-09-27T11:12:06;98807.34;;;11.98;100.00
14612;BME280;7392;52.078;11.650;2022-09-27T11:14:36;98800.47;;;11.92;100.00
14612;BME280;7392;52.078;11.650;2022-09-27T11:17:14;98798.66;;;11.93;100.00
14612;BME280;7392;52.078;11.650;2022-09-27T11:19:58;98811.06;;;11.94;100.00
14612;BME280;7392;52.078;11.650;2022-09-27T11:25:33;98809.31;;;11.93;100.00
14612;BME280;7392;52.078;11.650;2022-09-27T11:28:16;98810.25;;;11.90;100.00
14612;BME280;7392;52.078;11.650;2022-09-27T11:30:55;98810.25;;;11.90;100.00
14612;BME280;7392;52.078;11.650;2022-09-27T11:33:59;98806.59;;;11.94;100.00
14612;BME280;7392;52.078;11.650;2022-09-27T11:36:42;98798.63;;;11.94;100.00
14612;BME280;7392;52.078;11.650;2022-09-27T11:39:24;98805.84;;;11.91;100.00
14612;BME280;7392;52.078;11.650;2022-09-27T11:42:05;98810.25;;;11.90;100.00
14612;BME280;7392;52.078;11.650;2022-09-27T11:44:53;98801.28;;;11.94;100.00
14612;BME280;7392;52.078;11.650;2022-09-27T11:47:51;98801.47;;;12.12;100.00
14612;BME280;7392;52.078;11.650;2022-09-27T11:50:42;98800.88;;;12.27;100.00
14612;BME280;7392;52.078;11.650;2022-09-27T11:53:20;98808.97;;;12.46;100.00
14612;BME280;7392;52.078;11.650;2022-09-27T11:56:01;98801.63;;;12.53;100.00
14612;BME280;7392;52.078;11.650;2022-09-27T11:58:36;98813.63;;;12.63;100.00
14612;BME280;7392;52.078;11.650;2022-09-27T12:01:19;98815.59;;;12.80;100.00
14612;BME280;7392;52.078;11.650;2022-09-27T12:04:08;98815.66;;;12.79;96.71
14612;BME280;7392;52.078;11.650;2022-09-27T12:06:51;98805.94;;;12.78;97.15
14612;BME280;7392;52.078;11.650;2022-09-27T12:09:27;98805.78;;;12.81;98.07
14612;BME280;7392;52.078;11.650;2022-09-27T12:12:00;98810.44;;;12.76;95.99
14612;BME280;7392;52.078;11.650;2022-09-27T12:14:34;98812.50;;;12.69;94.26
14612;BME280;7392;52.078;11.650;2022-09-27T12:17:06;98814.47;;;12.64;95.02
14612;BME280;7392;52.078;11.650;2022-09-27T12:19:43;98812.50;;;12.69;95.86
14612;BME280;7392;52.078;11.650;2022-09-27T12:22:21;98813.09;;;12.76;93.98
14612;BME280;7392;52.078;11.650;2022-09-27T12:25:13;98812.88;;;12.82;93.28
14612;BME280;7392;52.078;11.650;2022-09-27T12:28:00;98817.94;;;12.88;93.04
14612;BME280;7392;52.078;11.650;2022-09-27T12:30:33;98826.41;;;12.98;92.67
14612;BME280;7392;52.078;11.650;2022-09-27T12:33:08;98830.69;;;13.02;91.81
14612;BME280;7392;52.078;11.650;2022-09-27T12:35:42;98826.81;;;13.09;90.74
14612;BME280;7392;52.078;11.650;2022-09-27T12:38:14;98828.28;;;13.16;89.02
14612;BME280;7392;52.078;11.650;2022-09-27T12:40:45;98821.81;;;13.22;89.17
14612;BME280;7392;52.078;11.650;2022-09-27T12:43:18;98841.13;;;13.27;87.90
14612;BME280;7392;52.078;11.650;2022-09-27T12:46:04;98837.97;;;13.19;86.31
14612;BME280;7392;52.078;11.650;2022-09-27T12:48:43;98830.47;;;13.06;86.12
14612;BME280;7392;52.078;11.650;2022-09-27T12:51:15;98833.47;;;12.99;86.45
14612;BME280;7392;52.078;11.650;2022-09-27T12:53:59;98832.69;;;12.97;86.80
14612;BME280;7392;52.078;11.650;2022-09-27T12:56:40;98829.72;;;13.03;88.02
14612;BME280;7392;52.078;11.650;2022-09-27T12:59:23;98829.53;;;13.07;87.47
14612;BME280;7392;52.078;11.650;2022-09-27T13:02:12;98829.00;;;13.20;86.35
14612;BME280;7392;52.078;11.650;2022-09-27T13:05:06;98834.66;;;13.34;86.50
14612;BME280;7392;52.078;11.650;2022-09-27T13:07:49;98822.50;;;13.47;85.50
14612;BME280;7392;52.078;11.650;2022-09-27T13:10:37;98824.59;;;13.61;85.43
14612;BME280;7392;52.078;11.650;2022-09-27T13:13:21;98825.72;;;13.75;84.11
14612;BME280;7392;52.078;11.650;2022-09-27T13:15:55;98827.94;;;13.86;83.23
14612;BME280;7392;52.078;11.650;2022-09-27T13:24:45;98833.19;;;14.44;77.46
14612;BME280;7392;52.078;11.650;2022-09-27T13:27:40;98830.16;;;14.52;75.57
14612;BME280;7392;52.078;11.650;2022-09-27T13:33:39;98829.44;;;14.29;73.54
14612;BME280;7392;52.078;11.650;2022-09-27T13:36:28;98836.16;;;14.38;74.82
14612;BME280;7392;52.078;11.650;2022-09-27T13:39:18;98839.31;;;14.46;74.58
14612;BME280;7392;52.078;11.650;2022-09-27T13:42:18;98839.38;;;14.45;74.58
14612;BME280;7392;52.078;11.650;2022-09-27T13:45:03;98831.75;;;14.37;73.01
14612;BME280;7392;52.078;11.650;2022-09-27T13:47:44;98839.13;;;14.32;73.27
14612;BME280;7392;52.078;11.650;2022-09-27T13:50:25;98840.25;;;14.26;74.60
14612;BME280;7392;52.078;11.650;2022-09-27T13:53:04;98834.19;;;14.22;76.00
14612;BME280;7392;52.078;11.650;2022-09-27T13:55:40;98835.16;;;14.21;76.79
14612;BME280;7392;52.078;11.650;2022-09-27T13:58:43;98848.50;;;14.21;77.81